Rhyll, Australia
Current Conditions -  °F | °C
As of 8:00 PM on Sunday 21 Dec 2014 (Local Time) from YMAV Reporting Station
Clear Clear  
Wind Chill: 70°   Ceiling: Unl
Heat Index: 70°   Visibility: 6mi
Dew Point: 59°   Wind: 12mph
Humidity: 68%   Direction: 190°S
Pressure: 29.88"   Gusts: NA
Location:  38.46°S, 145.3°E
Report Text: YMAV 210900Z AUTO 19010KT 9999 // NCD 21/15 Q1012
Loading
Personal Weather Stations






























Interactive Weather Map New forecast layout! Learn more

10-Day Weather Forecast

Advertisements
Track Severe Weather on mobile